カシュガル の空港の天気 - METARとTAF

カシュガル空港 ( ZWSH / KHG ) - 中国 新疆ウイグル自治区カシュガル市
飛行場実況気象(Metar)
観測時間10/18 17:00 CST (10/18 09:00 UTC)
風向・風速南南西 4m/s
視程10km以上
天気現象
なし
気温24℃
湿度8%
気圧1016hPa
METARZWSH 180900Z 20004MPS 160V220 CAVOK 24/M12 Q1016 NOSIG
過去の天気等 Google飛行場航空写真 Wunderground天気予報

過去48時間のMETAR

飛行場予報(TAF)
発表時間: 10/18 11:09 CST (10/18 03:09 UTC)
予報対象時間: 18日14時 CST ~ 19日14時 CST
風向・風速北西 6m/s
視程10km以上
少しの雲 雲底高度 1220m
TAF ZWSH 180309Z 1806/1906 32006MPS 9999 FEW040 TX22/1809Z TN14/1900Z